Time;durP1;ratioP1;P1;durP2;ratioP2;P2;SDS_P1;SDS_P2;PMS_P1;PMS_P2;Temp;Humidity;BMP_temperature;BMP_pressure;BME280_temperature;BME280_humidity;BME280_pressure;Samples;Min_cycle;Max_cycle;Signal;HPM_P1;HPM_P2
2023/02/21 02:14:08;;;;;;;1.73;1.30;;;5.10;99.90;;;;;;4886545;29;20052;-77
2023/02/21 02:17:12;;;;;;;1.85;1.55;;;5.10;99.90;;;;;;4886513;29;20021;-76
2023/02/21 02:19:44;;;;;;;1.70;1.30;;;4.90;99.90;;;;;;4857335;29;20048;-76
2023/02/21 02:22:28;;;;;;;1.88;1.27;;;4.80;99.90;;;;;;4886436;29;20068;-76
2023/02/21 02:24:53;;;;;;;1.70;1.30;;;4.80;99.90;;;;;;4886598;29;20085;-77
2023/02/21 02:27:54;;;;;;;2.45;1.58;;;4.70;99.90;;;;;;4886236;29;20028;-76
2023/02/21 02:30:35;;;;;;;1.63;1.25;;;4.70;99.90;;;;;;4886353;29;20032;-76
2023/02/21 02:33:25;;;;;;;1.90;1.70;;;4.80;99.90;;;;;;4886124;29;20025;-76
2023/02/21 02:36:12;;;;;;;1.70;1.40;;;4.80;99.90;;;;;;4877823;29;20492;-76
2023/02/21 02:38:47;;;;;;;1.77;1.27;;;4.80;99.90;;;;;;4888763;29;20029;-77
2023/02/21 02:41:31;;;;;;;1.83;1.50;;;4.80;99.90;;;;;;4886221;29;20142;-77
2023/02/21 02:44:05;;;;;;;;;;;4.80;99.90;;;;;;4881569;29;20035;-77
2023/02/21 02:46:34;;;;;;;2.47;1.38;;;4.80;99.90;;;;;;4890199;29;19967;-77
2023/02/21 02:49:07;;;;;;;1.50;1.35;;;4.90;99.90;;;;;;4885865;29;20033;-77
2023/02/21 02:51:33;;;;;;;;;;;4.90;99.90;;;;;;4869553;29;20029;-76
2023/02/21 02:53:59;;;;;;;1.65;1.40;;;4.90;99.90;;;;;;4869668;29;19911;-77
2023/02/21 02:56:25;;;;;;;1.65;1.30;;;4.80;99.90;;;;;;4869077;29;20045;-77
2023/02/21 02:58:58;;;;;;;1.92;1.73;;;4.90;99.90;;;;;;4885926;29;20509;-77
2023/02/21 03:01:40;;;;;;;2.42;1.65;;;4.80;99.90;;;;;;4868834;29;20049;-77
2023/02/21 03:04:20;;;;;;;2.20;1.85;;;4.80;99.90;;;;;;4885591;29;20036;-77
2023/02/21 03:07:06;;;;;;;2.30;1.80;;;4.70;99.90;;;;;;4894252;29;20043;-77
2023/02/21 03:09:56;;;;;;;2.40;1.77;;;4.60;99.90;;;;;;4872315;29;20021;-77
2023/02/21 03:12:50;;;;;;;2.67;2.10;;;4.60;99.90;;;;;;4887474;29;20036;-75
2023/02/21 03:15:18;;;;;;;;;;;4.70;99.90;;;;;;4886089;29;20104;-75
2023/02/21 03:17:52;;;;;;;2.10;1.75;;;4.80;99.90;;;;;;4889850;29;19911;-75
2023/02/21 03:20:20;;;;;;;1.80;1.60;;;4.80;99.90;;;;;;4904333;29;20033;-75
2023/02/21 03:22:48;;;;;;;2.65;1.75;;;4.80;99.90;;;;;;4904201;29;20027;-75
2023/02/21 03:25:15;;;;;;;2.15;1.83;;;4.70;99.90;;;;;;4887150;29;20502;-75
2023/02/21 03:27:43;;;;;;;2.10;1.67;;;4.70;99.90;;;;;;4904283;29;20021;-75
2023/02/21 03:30:10;;;;;;;2.45;1.70;;;4.60;99.90;;;;;;4887113;29;20039;-75
2023/02/21 03:32:44;;;;;;;1.98;1.40;;;4.60;99.90;;;;;;4903868;29;20588;-76
2023/02/21 03:35:10;;;;;;;2.10;1.63;;;4.60;99.90;;;;;;4887072;29;20032;-75
2023/02/21 03:37:38;;;;;;;2.20;1.55;;;4.70;99.90;;;;;;4895642;29;20045;-75
2023/02/21 03:40:13;;;;;;;1.85;1.55;;;4.60;99.90;;;;;;4868358;29;20049;-75
2023/02/21 03:42:39;;;;;;;1.90;1.55;;;4.50;99.90;;;;;;4886986;29;20465;-75
2023/02/21 03:45:05;;;;;;;2.78;1.90;;;4.50;99.90;;;;;;4871555;29;20057;-76
2023/02/21 03:47:30;;;;;;;1.88;1.45;;;4.40;99.90;;;;;;4885188;29;20084;-75
2023/02/21 03:49:56;;;;;;;1.58;1.30;;;4.50;99.90;;;;;;4884638;29;20025;-76
2023/02/21 03:52:22;;;;;;;2.10;1.50;;;4.50;99.90;;;;;;4868449;29;20036;-75
2023/02/21 03:54:47;;;;;;;2.08;1.55;;;4.50;99.90;;;;;;4884689;29;20089;-76
2023/02/21 03:57:13;;;;;;;1.83;1.48;;;4.50;99.90;;;;;;4868045;29;20029;-75
2023/02/21 03:59:39;;;;;;;2.25;1.70;;;4.50;99.90;;;;;;4884553;29;20029;-76
2023/02/21 04:02:04;;;;;;;2.00;1.77;;;4.60;99.90;;;;;;4884701;29;20052;-75
2023/02/21 04:04:30;;;;;;;2.00;1.67;;;4.60;99.90;;;;;;4884322;29;20040;-75
2023/02/21 04:06:56;;;;;;;2.33;1.60;;;4.60;99.90;;;;;;4891196;29;20148;-75
2023/02/21 04:09:22;;;;;;;2.28;1.73;;;4.50;99.90;;;;;;4874659;29;20045;-75
2023/02/21 04:11:48;;;;;;;2.47;1.70;;;4.50;99.90;;;;;;4887365;29;20033;-75
2023/02/21 04:14:13;;;;;;;2.30;1.63;;;4.50;99.90;;;;;;4884343;29;20073;-75
2023/02/21 04:16:41;;;;;;;2.75;1.65;;;4.50;99.90;;;;;;4884503;29;20041;-75
2023/02/21 04:19:06;;;;;;;2.38;1.80;;;4.40;99.90;;;;;;4882880;29;20035;-75
2023/02/21 04:21:32;;;;;;;2.17;1.70;;;4.40;99.90;;;;;;4886837;29;20028;-75
2023/02/21 04:23:58;;;;;;;2.08;1.50;;;4.40;99.90;;;;;;4903023;29;20381;-75
2023/02/21 04:26:24;;;;;;;1.80;1.58;;;4.50;99.90;;;;;;4886155;29;20028;-75
2023/02/21 04:28:50;;;;;;;2.65;1.90;;;4.50;99.90;;;;;;4886180;29;20029;-75
2023/02/21 04:31:17;;;;;;;2.95;2.00;;;4.50;99.90;;;;;;4903010;29;20076;-75
2023/02/21 04:33:43;;;;;;;2.58;1.90;;;4.40;99.90;;;;;;4902290;29;20049;-76
2023/02/21 04:36:09;;;;;;;2.30;1.70;;;4.30;99.90;;;;;;4902866;29;20108;-75
2023/02/21 04:38:36;;;;;;;2.13;1.70;;;4.20;99.90;;;;;;4872861;29;20064;-76
2023/02/21 04:41:02;;;;;;;2.45;1.70;;;4.20;99.90;;;;;;4867907;29;20061;-76
2023/02/21 04:43:28;;;;;;;3.03;1.73;;;4.20;99.90;;;;;;4888325;29;20089;-76
2023/02/21 04:45:54;;;;;;;1.90;1.40;;;4.20;99.90;;;;;;4883970;29;20491;-76
2023/02/21 04:48:20;;;;;;;2.28;1.52;;;4.20;99.90;;;;;;4886948;29;20037;-75
2023/02/21 04:50:45;;;;;;;1.85;1.27;;;4.20;99.90;;;;;;4893132;29;20033;-75
2023/02/21 04:53:11;;;;;;;2.67;1.65;;;4.30;99.90;;;;;;4883735;29;20037;-76
2023/02/21 04:55:37;;;;;;;2.58;1.77;;;4.30;99.90;;;;;;4883829;29;20029;-76
2023/02/21 04:58:03;;;;;;;3.50;1.80;;;4.30;99.90;;;;;;4883648;29;20483;-75
2023/02/21 05:00:28;;;;;;;1.98;1.33;;;4.30;99.90;;;;;;4883700;29;20029;-76
2023/02/21 05:02:54;;;;;;;1.75;1.58;;;4.20;99.90;;;;;;4866332;29;20033;-76
2023/02/21 05:05:20;;;;;;;2.45;1.60;;;4.30;99.90;;;;;;4883782;29;20041;-75
2023/02/21 05:07:45;;;;;;;2.10;1.50;;;4.30;99.90;;;;;;4893378;29;20080;-75
2023/02/21 05:10:11;;;;;;;2.38;1.65;;;4.30;99.90;;;;;;4883929;29;20029;-75
2023/02/21 05:12:40;;;;;;;2.20;1.60;;;4.30;99.90;;;;;;4885993;29;20094;-76
2023/02/21 05:15:07;;;;;;;2.45;1.80;;;4.30;99.90;;;;;;4875956;29;20024;-75
2023/02/21 05:17:33;;;;;;;2.00;1.55;;;4.10;99.90;;;;;;4889433;29;20028;-76
2023/02/21 05:19:59;;;;;;;2.25;1.77;;;4.00;99.90;;;;;;4885315;29;20386;-76
2023/02/21 05:22:25;;;;;;;2.55;1.75;;;3.90;99.90;;;;;;4902052;29;20039;-75
2023/02/21 05:24:50;;;;;;;1.38;1.27;;;3.90;99.90;;;;;;4902165;29;20092;-75
2023/02/21 05:27:21;;;;;;;1.80;1.60;;;3.90;99.90;;;;;;4901991;29;20399;-75
2023/02/21 05:29:48;;;;;;;1.90;1.50;;;3.90;99.90;;;;;;4902351;29;20032;-75
2023/02/21 05:32:14;;;;;;;1.40;1.17;;;3.80;99.90;;;;;;4901871;29;20039;-75
2023/02/21 05:34:43;;;;;;;1.58;1.30;;;3.80;99.90;;;;;;4901747;29;20033;-76
2023/02/21 05:37:09;;;;;;;1.70;1.48;;;3.80;99.90;;;;;;4886877;29;20036;-76
2023/02/21 05:39:35;;;;;;;1.80;1.38;;;3.80;99.90;;;;;;4866704;29;20466;-76
2023/02/21 05:42:01;;;;;;;1.70;1.30;;;3.90;99.90;;;;;;4911930;29;20025;-76
2023/02/21 05:44:27;;;;;;;1.80;1.30;;;3.90;99.90;;;;;;4901291;29;20401;-76
2023/02/21 05:46:53;;;;;;;2.42;1.40;;;3.90;99.90;;;;;;4886778;29;20036;-76
2023/02/21 05:49:19;;;;;;;1.77;1.42;;;4.00;99.90;;;;;;4867425;29;20573;-76
2023/02/21 05:51:44;;;;;;;1.80;1.20;;;4.00;99.90;;;;;;4883069;29;20036;-76
2023/02/21 05:54:19;;;;;;;1.50;1.40;;;4.00;99.90;;;;;;4877291;29;20044;-76
2023/02/21 05:56:46;;;;;;;1.73;1.27;;;3.90;99.90;;;;;;4889173;29;20032;-76
2023/02/21 05:59:12;;;;;;;1.67;1.20;;;3.90;99.90;;;;;;4898205;29;20034;-76
2023/02/21 06:01:38;;;;;;;1.73;1.30;;;4.00;99.90;;;;;;4882820;29;20029;-75
2023/02/21 06:04:06;;;;;;;2.25;1.45;;;4.00;99.90;;;;;;4882902;29;20117;-75
2023/02/21 06:06:35;;;;;;;2.10;1.27;;;4.10;99.90;;;;;;4900134;29;20028;-76
2023/02/21 06:09:01;;;;;;;1.65;1.23;;;4.10;99.90;;;;;;4889729;29;20029;-76
2023/02/21 06:11:32;;;;;;;2.28;1.25;;;4.20;99.90;;;;;;4886066;29;20414;-76
2023/02/21 06:13:59;;;;;;;1.50;1.40;;;4.20;99.90;;;;;;4872966;29;20080;-76
2023/02/21 06:16:24;;;;;;;1.90;1.40;;;4.20;99.90;;;;;;4882927;29;20103;-76
2023/02/21 06:18:52;;;;;;;2.35;1.10;;;4.20;99.90;;;;;;4896091;29;20170;-76
2023/02/21 06:21:18;;;;;;;1.35;1.20;;;4.20;99.90;;;;;;4902971;29;20405;-75
2023/02/21 06:23:44;;;;;;;2.47;1.80;;;4.20;99.90;;;;;;4905108;29;20060;-76
2023/02/21 06:26:10;;;;;;;2.00;1.27;;;4.20;99.90;;;;;;4905352;29;20490;-76
2023/02/21 06:28:35;;;;;;;1.65;1.17;;;4.20;99.90;;;;;;4905002;29;20028;-77
2023/02/21 06:31:03;;;;;;;2.33;1.63;;;4.20;99.90;;;;;;4905209;29;20108;-77
2023/02/21 06:33:29;;;;;;;1.83;1.30;;;4.10;99.90;;;;;;4904476;29;20080;-76
2023/02/21 06:35:55;;;;;;;2.42;1.38;;;4.10;99.90;;;;;;4904912;29;20024;-76
2023/02/21 06:38:21;;;;;;;2.03;1.48;;;4.10;99.90;;;;;;4881728;29;20033;-76
2023/02/21 06:40:47;;;;;;;1.98;1.58;;;4.10;99.90;;;;;;4869232;29;20057;-76
2023/02/21 06:43:12;;;;;;;2.53;1.65;;;4.00;99.90;;;;;;4886047;29;20033;-76
2023/02/21 06:45:38;;;;;;;1.73;1.50;;;3.90;99.90;;;;;;4869448;29;20465;-76
2023/02/21 06:48:04;;;;;;;2.00;1.50;;;3.90;99.90;;;;;;4892871;29;20028;-76
2023/02/21 06:50:30;;;;;;;1.92;1.50;;;3.80;99.90;;;;;;4869274;29;20072;-76
2023/02/21 06:52:55;;;;;;;1.77;1.30;;;3.90;99.90;;;;;;4885886;29;20457;-76
2023/02/21 06:55:22;;;;;;;2.70;1.40;;;4.00;99.90;;;;;;4891855;29;20099;-76
2023/02/21 06:57:48;;;;;;;2.22;1.40;;;4.00;99.90;;;;;;4904474;29;20055;-76
2023/02/21 07:00:15;;;;;;;1.30;1.20;;;4.10;99.90;;;;;;4904433;29;20081;-76
2023/02/21 07:02:41;;;;;;;1.50;1.27;;;4.10;99.90;;;;;;4887463;29;20068;-76
2023/02/21 07:05:07;;;;;;;2.10;1.50;;;4.20;99.90;;;;;;4887596;29;20431;-76
2023/02/21 07:07:33;;;;;;;1.92;1.48;;;4.10;99.90;;;;;;4904246;29;20052;-76
2023/02/21 07:09:58;;;;;;;2.33;1.92;;;4.10;99.90;;;;;;4885661;29;20032;-76
2023/02/21 07:12:24;;;;;;;2.53;1.50;;;4.10;99.90;;;;;;4889195;29;20099;-76
2023/02/21 07:14:50;;;;;;;1.70;1.40;;;4.10;99.90;;;;;;4868581;29;20032;-76
2023/02/21 07:17:15;;;;;;;1.75;1.55;;;4.10;99.90;;;;;;4886683;29;20021;-76
2023/02/21 07:19:42;;;;;;;2.08;1.50;;;4.10;99.90;;;;;;4903989;29;20063;-76
2023/02/21 07:22:07;;;;;;;1.38;1.27;;;4.10;99.90;;;;;;4887042;29;20362;-76
2023/02/21 07:24:34;;;;;;;2.40;2.00;;;4.10;99.90;;;;;;4901783;29;20141;-77
2023/02/21 07:26:59;;;;;;;2.22;1.60;;;4.10;99.90;;;;;;4885049;29;20029;-77
2023/02/21 07:29:25;;;;;;;2.13;1.70;;;4.10;99.90;;;;;;4885046;29;20061;-77
2023/02/21 07:31:51;;;;;;;2.17;1.70;;;4.10;99.90;;;;;;4893498;29;20115;-77
2023/02/21 07:34:18;;;;;;;1.70;1.60;;;4.20;99.90;;;;;;4899610;29;20031;-77
2023/02/21 07:36:44;;;;;;;1.80;1.40;;;4.10;99.90;;;;;;4913797;29;20059;-77
2023/02/21 07:39:10;;;;;;;1.50;1.40;;;4.10;99.90;;;;;;4905651;29;20036;-78
2023/02/21 07:41:36;;;;;;;1.73;1.42;;;4.10;99.90;;;;;;4890511;29;20036;-77
2023/02/21 07:44:01;;;;;;;1.77;1.25;;;4.10;99.90;;;;;;4890112;29;20025;-77
2023/02/21 07:46:28;;;;;;;1.55;1.10;;;4.10;99.90;;;;;;4893250;29;20028;-77
2023/02/21 07:48:54;;;;;;;1.73;1.55;;;4.20;99.90;;;;;;4885978;29;20032;-78
2023/02/21 07:51:19;;;;;;;1.50;1.20;;;4.20;99.90;;;;;;4885356;29;20028;-77
2023/02/21 07:53:45;;;;;;;2.15;1.50;;;4.30;99.90;;;;;;4902434;29;20119;-78
2023/02/21 07:56:11;;;;;;;1.50;1.23;;;4.30;99.90;;;;;;4903334;29;20025;-78
2023/02/21 07:58:36;;;;;;;1.42;1.20;;;4.40;99.90;;;;;;4903547;29;20029;-78
2023/02/21 08:01:06;;;;;;;1.60;1.27;;;4.40;99.90;;;;;;4903350;29;20036;-78
2023/02/21 08:03:32;;;;;;;1.80;1.65;;;4.40;99.90;;;;;;4903212;29;20029;-77
2023/02/21 08:05:58;;;;;;;2.25;1.67;;;4.40;99.90;;;;;;4902111;29;20040;-78
2023/02/21 08:08:25;;;;;;;1.77;1.40;;;4.40;99.90;;;;;;4894730;29;20029;-77
2023/02/21 08:10:50;;;;;;;1.73;1.50;;;4.40;99.90;;;;;;4886425;29;20033;-78
2023/02/21 08:13:16;;;;;;;1.63;1.42;;;4.40;99.90;;;;;;4884233;29;20025;-78
2023/02/21 08:15:42;;;;;;;2.28;1.88;;;4.50;99.90;;;;;;4866821;29;20025;-78
2023/02/21 08:18:22;;;;;;;1.83;1.50;;;4.50;99.90;;;;;;4901120;29;20024;-78
2023/02/21 08:20:51;;;;;;;1.90;1.67;;;4.60;99.90;;;;;;4885959;29;20084;-78
2023/02/21 08:23:17;;;;;;;1.50;1.27;;;4.60;99.90;;;;;;4902764;29;20068;-77
2023/02/21 08:25:44;;;;;;;2.67;1.80;;;4.60;99.90;;;;;;4902057;29;20025;-78
2023/02/21 08:28:10;;;;;;;2.33;1.45;;;4.60;99.90;;;;;;4902990;29;20518;-78
2023/02/21 08:30:35;;;;;;;2.28;1.80;;;4.60;99.90;;;;;;4885664;29;20067;-78
2023/02/21 08:33:01;;;;;;;3.75;1.60;;;4.60;99.90;;;;;;4885109;29;20036;-78
2023/02/21 08:35:27;;;;;;;2.08;1.60;;;4.60;99.90;;;;;;4902447;29;20164;-78
2023/02/21 08:37:55;;;;;;;2.70;1.88;;;4.70;99.90;;;;;;4891925;29;20501;-78
2023/02/21 08:40:23;;;;;;;2.55;1.83;;;4.80;99.90;;;;;;4882866;29;20090;-78
2023/02/21 08:42:51;;;;;;;1.77;1.42;;;4.80;99.90;;;;;;4870246;29;20095;-78
2023/02/21 08:45:21;;;;;;;2.03;1.77;;;4.80;99.90;;;;;;4884682;29;20542;-77
2023/02/21 08:47:47;;;;;;;2.20;1.80;;;4.80;99.90;;;;;;4895467;29;20040;-78
2023/02/21 08:50:13;;;;;;;2.20;1.98;;;4.90;99.90;;;;;;4885577;29;20020;-77
2023/02/21 08:52:39;;;;;;;2.17;1.80;;;4.90;99.90;;;;;;4902658;29;20021;-78
2023/02/21 08:55:05;;;;;;;2.40;1.80;;;4.90;99.90;;;;;;4901546;29;20080;-77
2023/02/21 08:57:33;;;;;;;1.65;1.55;;;5.20;99.90;;;;;;4902243;29;20036;-78
2023/02/21 08:59:59;;;;;;;2.53;1.98;;;5.20;99.90;;;;;;4902116;29;20028;-77
2023/02/21 09:02:25;;;;;;;2.42;2.10;;;5.20;99.90;;;;;;4884850;29;20051;-78
2023/02/21 09:04:53;;;;;;;2.55;1.98;;;5.30;99.90;;;;;;4885220;29;20032;-77
2023/02/21 09:07:21;;;;;;;1.98;1.58;;;5.30;99.90;;;;;;4901973;29;20029;-78
2023/02/21 09:09:47;;;;;;;2.33;2.03;;;5.30;99.90;;;;;;4866959;29;20032;-78
2023/02/21 09:12:13;;;;;;;4.22;2.20;;;5.40;99.90;;;;;;4885011;29;20032;-78
2023/02/21 09:14:40;;;;;;;3.00;2.00;;;5.60;99.90;;;;;;4882709;29;20477;-78
2023/02/21 09:17:08;;;;;;;2.95;1.80;;;5.60;99.90;;;;;;4886810;29;20039;-78
2023/02/21 09:19:34;;;;;;;2.35;1.77;;;5.70;99.90;;;;;;4882595;29;20108;-77
2023/02/21 09:22:01;;;;;;;2.30;1.90;;;5.80;99.90;;;;;;4883424;29;20029;-77
2023/02/21 09:24:27;;;;;;;2.95;1.95;;;5.80;99.90;;;;;;4882856;29;20021;-78
2023/02/21 09:26:58;;;;;;;2.63;2.28;;;5.90;99.90;;;;;;4882490;29;20029;-77
2023/02/21 09:29:26;;;;;;;2.63;1.98;;;6.00;99.90;;;;;;4883125;29;20053;-77
2023/02/21 09:31:52;;;;;;;2.65;2.28;;;6.00;99.90;;;;;;4882710;29;20036;-78
2023/02/21 09:34:19;;;;;;;2.28;1.92;;;6.10;99.90;;;;;;4866283;29;20033;-78
2023/02/21 09:36:46;;;;;;;3.08;2.20;;;6.20;99.90;;;;;;4884461;29;20028;-77
2023/02/21 09:39:12;;;;;;;4.35;2.53;;;6.20;99.90;;;;;;4865632;29;20048;-77
2023/02/21 09:41:39;;;;;;;3.45;2.50;;;6.30;99.90;;;;;;4882539;29;20442;-77
2023/02/21 09:44:06;;;;;;;2.20;2.00;;;6.30;99.90;;;;;;4888221;29;20406;-77
2023/02/21 09:46:41;;;;;;;2.97;2.28;;;6.40;99.90;;;;;;4901646;29;20039;-77
2023/02/21 09:49:20;;;;;;;2.92;2.25;;;6.40;99.90;;;;;;4901743;29;20032;-78
2023/02/21 09:51:48;;;;;;;3.60;2.38;;;6.40;99.90;;;;;;4885729;29;20055;-77
2023/02/21 09:54:31;;;;;;;3.38;2.75;;;6.50;99.90;;;;;;4896786;29;20033;-77
2023/02/21 09:57:00;;;;;;;3.10;2.30;;;6.50;99.90;;;;;;4868784;29;20097;-77
2023/02/21 09:59:27;;;;;;;2.97;2.40;;;6.60;99.90;;;;;;4886733;29;20498;-77
2023/02/21 10:02:14;;;;;;;3.72;2.65;;;6.70;99.90;;;;;;4886762;29;20032;-77
2023/02/21 10:05:02;;;;;;;4.25;2.92;;;6.80;99.90;;;;;;4869971;29;20029;-77
2023/02/21 10:07:57;;;;;;;3.22;2.70;;;6.90;99.90;;;;;;4886146;29;20525;-77
2023/02/21 10:10:42;;;;;;;2.97;2.28;;;6.90;99.90;;;;;;4866665;29;20380;-76
2023/02/21 10:13:55;;;;;;;4.25;2.75;;;6.90;99.90;;;;;;4886632;29;20578;-77
2023/02/21 10:16:43;;;;;;;3.00;2.30;;;7.00;99.90;;;;;;4857401;29;20045;-78
2023/02/21 10:19:50;;;;;;;3.50;2.30;;;7.10;99.90;;;;;;4902812;29;20103;-78
2023/02/21 10:22:22;;;;;;;3.45;2.83;;;7.10;99.90;;;;;;4892904;29;20051;-79
2023/02/21 10:24:49;;;;;;;4.30;3.30;;;7.20;99.90;;;;;;4905401;29;20029;-77
2023/02/21 10:27:23;;;;;;;4.40;3.40;;;7.30;99.90;;;;;;4888232;29;20494;-78
2023/02/21 10:30:03;;;;;;;5.60;3.90;;;7.30;99.90;;;;;;4888318;29;20080;-77
2023/02/21 10:32:29;;;;;;;5.57;3.53;;;7.40;99.90;;;;;;4887756;29;20036;-77
2023/02/21 10:34:57;;;;;;;5.30;3.63;;;7.50;99.90;;;;;;4888296;29;20025;-77
2023/02/21 10:37:49;;;;;;;4.82;3.72;;;7.50;99.90;;;;;;4891872;29;20053;-77
2023/02/21 10:40:35;;;;;;;4.97;3.80;;;7.60;99.90;;;;;;4886392;29;20557;-77
2023/02/21 10:43:10;;;;;;;5.30;4.05;;;7.60;99.90;;;;;;4891073;29;20088;-77
2023/02/21 10:45:44;;;;;;;5.63;3.75;;;7.70;99.90;;;;;;4897941;29;20064;-77
2023/02/21 10:48:11;;;;;;;6.13;3.40;;;7.70;99.90;;;;;;4868806;29;20029;-77
2023/02/21 10:50:47;;;;;;;4.22;3.47;;;7.80;99.90;;;;;;4869335;29;20518;-77
2023/02/21 10:53:22;;;;;;;5.05;3.75;;;7.90;99.90;;;;;;4885905;29;20037;-77
2023/02/21 10:56:27;;;;;;;5.00;3.78;;;8.00;99.90;;;;;;4886249;29;20125;-77
2023/02/21 10:59:05;;;;;;;5.25;3.25;;;8.20;99.90;;;;;;4878855;29;20545;-77
2023/02/21 11:01:42;;;;;;;5.93;4.10;;;8.30;99.90;;;;;;4904496;29;20028;-77
2023/02/21 11:04:19;;;;;;;5.55;3.78;;;8.40;99.90;;;;;;4887629;29;20032;-77
2023/02/21 11:06:58;;;;;;;5.45;4.38;;;8.50;99.90;;;;;;4904417;29;20063;-77
2023/02/21 11:09:26;;;;;;;6.65;4.45;;;8.50;99.90;;;;;;4888528;29;20080;-77
2023/02/21 11:12:06;;;;;;;6.25;4.47;;;8.60;99.90;;;;;;4887867;29;20643;-77
2023/02/21 11:14:33;;;;;;;6.82;4.63;;;8.60;99.90;;;;;;4885470;29;20033;-77
2023/02/21 11:17:16;;;;;;;5.90;4.40;;;8.60;99.90;;;;;;4868754;29;20490;-77
2023/02/21 11:19:53;;;;;;;6.07;4.40;;;8.70;99.90;;;;;;4885472;29;20406;-77
2023/02/21 11:22:35;;;;;;;4.70;3.85;;;8.80;99.90;;;;;;4885365;29;20037;-77
2023/02/21 11:25:17;;;;;;;5.82;4.30;;;8.80;99.90;;;;;;4885369;29;20033;-77
2023/02/21 11:27:44;;;;;;;7.45;4.80;;;9.00;99.90;;;;;;4885674;29;20028;-77
2023/02/21 11:30:18;;;;;;;6.93;4.40;;;9.00;99.90;;;;;;4885434;29;20160;-77
2023/02/21 11:32:50;;;;;;;7.43;4.53;;;9.10;99.90;;;;;;4868500;29;20116;-77
2023/02/21 11:35:19;;;;;;;6.47;4.88;;;9.10;99.90;;;;;;4885173;29;20479;-78
2023/02/21 11:38:08;;;;;;;7.05;4.43;;;9.20;99.90;;;;;;4889795;29;20108;-78
2023/02/21 11:40:42;;;;;;;9.02;4.90;;;9.30;99.90;;;;;;4885152;29;20065;-78
2023/02/21 11:43:17;;;;;;;;;;;9.40;99.90;;;;;;4873602;29;20028;-78
2023/02/21 11:45:48;;;;;;;4.55;3.50;;;9.50;99.90;;;;;;4884877;29;19912;-78
2023/02/21 11:48:18;;;;;;;4.72;3.58;;;9.60;99.90;;;;;;4867833;29;20064;-78
2023/02/21 11:50:49;;;;;;;6.68;4.45;;;9.70;99.90;;;;;;4884984;29;20561;-77
2023/02/21 11:53:21;;;;;;;5.47;3.75;;;9.80;99.90;;;;;;4884842;29;20067;-78
2023/02/21 11:56:24;;;;;;;6.03;4.78;;;9.80;99.90;;;;;;4871850;29;20072;-78
2023/02/21 11:58:58;;;;;;;5.20;3.88;;;9.90;99.90;;;;;;4887117;29;20036;-78
2023/02/21 12:01:34;;;;;;;6.18;4.45;;;10.00;99.90;;;;;;4886435;29;20032;-78
2023/02/21 12:04:35;;;;;;;6.28;4.25;;;10.00;99.90;;;;;;4903301;29;20029;-78
2023/02/21 12:07:11;;;;;;;7.03;4.57;;;10.10;99.90;;;;;;4903405;29;20036;-78
2023/02/21 12:10:08;;;;;;;5.90;4.55;;;10.10;99.90;;;;;;4869995;29;20035;-77
2023/02/21 12:12:43;;;;;;;6.53;4.22;;;10.10;99.90;;;;;;4886156;29;20062;-78
2023/02/21 12:15:46;;;;;;;6.57;5.30;;;10.10;99.90;;;;;;4867981;29;20037;-79
2023/02/21 12:18:22;;;;;;;6.47;4.28;;;10.10;99.90;;;;;;4892398;29;20021;-79
2023/02/21 12:20:54;;;;;;;6.35;4.65;;;10.20;99.90;;;;;;4885860;29;20091;-79
2023/02/21 12:23:35;;;;;;;7.22;5.70;;;10.20;99.90;;;;;;4903253;29;20032;-78
2023/02/21 12:26:29;;;;;;;6.25;5.20;;;10.20;99.90;;;;;;4903181;29;20039;-78
2023/02/21 12:29:05;;;;;;;;;;;10.30;99.90;;;;;;4903330;29;20028;-77
2023/02/21 12:31:47;;;;;;;6.30;4.30;;;10.30;99.90;;;;;;4902364;29;19907;-78
2023/02/21 12:34:37;;;;;;;6.70;5.25;;;10.30;99.90;;;;;;4902571;29;20028;-77
2023/02/21 12:37:06;;;;;;;8.07;4.93;;;10.30;99.90;;;;;;4901729;29;20031;-78
2023/02/21 12:40:00;;;;;;;6.75;5.60;;;10.30;99.90;;;;;;4902673;29;20056;-78
2023/02/21 12:42:43;;;;;;;8.38;5.53;;;10.30;99.90;;;;;;4902694;29;20021;-79
2023/02/21 12:45:27;;;;;;;8.85;5.80;;;10.30;99.90;;;;;;4883980;29;20085;-78
2023/02/21 12:48:01;;;;;;;8.73;6.22;;;10.20;99.90;;;;;;4883640;29;20022;-78
2023/02/21 12:50:32;;;;;;;8.50;6.43;;;10.20;99.90;;;;;;4883873;29;20037;-78
2023/02/21 12:53:14;;;;;;;11.68;7.40;;;10.20;99.90;;;;;;4883772;29;20048;-78
2023/02/21 12:56:05;;;;;;;9.25;6.88;;;10.30;99.90;;;;;;4883964;29;20036;-78
2023/02/21 12:58:37;;;;;;;10.57;7.72;;;10.40;99.90;;;;;;4867319;29;20140;-78
2023/02/21 13:01:09;;;;;;;11.20;7.47;;;10.50;99.90;;;;;;4866987;29;20029;-78
2023/02/21 13:04:15;;;;;;;11.35;7.53;;;10.60;99.90;;;;;;4883416;29;20020;-78
2023/02/21 13:06:57;;;;;;;10.57;7.28;;;10.70;99.90;;;;;;4872612;29;20486;-78
2023/02/21 13:09:49;;;;;;;12.15;7.45;;;10.80;99.90;;;;;;4887692;29;20513;-76
2023/02/21 13:12:23;;;;;;;9.63;6.85;;;10.80;99.90;;;;;;4887013;29;20107;-79
2023/02/21 13:15:24;;;;;;;11.07;7.82;;;10.90;99.90;;;;;;4867028;29;20057;-78
2023/02/21 13:17:55;;;;;;;10.15;7.20;;;11.00;99.90;;;;;;4870340;29;20417;-78
2023/02/21 13:20:23;;;;;;;9.77;7.40;;;11.10;99.90;;;;;;4902268;29;20040;-78
2023/02/21 13:26:35;;;;;;;8.73;6.93;;;11.30;99.90;;;;;;4902354;29;20449;-78
2023/02/21 13:29:01;;;;;;;8.57;6.20;;;11.40;99.90;;;;;;4902101;29;20512;-78
2023/02/21 13:31:37;;;;;;;9.20;6.88;;;11.40;99.90;;;;;;4901070;29;20020;-79
2023/02/21 13:34:07;;;;;;;10.05;6.68;;;11.40;99.90;;;;;;4901548;29;20112;-77
2023/02/21 13:36:41;;;;;;;7.10;6.00;;;11.40;99.90;;;;;;4902371;29;20028;-78
2023/02/21 13:39:14;;;;;;;8.77;5.93;;;11.30;99.90;;;;;;4883399;29;20049;-78
2023/02/21 13:42:01;;;;;;;8.00;5.78;;;11.20;99.90;;;;;;4866416;29;20035;-78
2023/02/21 13:44:36;;;;;;;6.78;5.53;;;11.10;99.90;;;;;;4887745;29;20033;-78
2023/02/21 13:47:05;;;;;;;9.43;6.47;;;11.10;99.90;;;;;;4883159;29;20025;-78
2023/02/21 13:49:54;;;;;;;8.48;6.18;;;11.10;99.90;;;;;;4882990;29;20033;-77
2023/02/21 13:52:22;;;;;;;9.13;5.97;;;11.00;99.90;;;;;;4892146;29;20055;-78
2023/02/21 13:55:19;;;;;;;9.38;5.85;;;11.00;99.90;;;;;;4901430;29;20088;-78
2023/02/21 13:57:56;;;;;;;8.00;5.70;;;10.90;99.90;;;;;;4901858;29;20475;-78
2023/02/21 14:00:28;;;;;;;6.78;5.38;;;10.90;99.90;;;;;;4885303;29;20036;-78
2023/02/21 14:02:56;;;;;;;6.75;4.85;;;10.90;99.90;;;;;;4901468;29;20032;-78
2023/02/21 14:05:23;;;;;;;6.07;4.95;;;10.80;99.90;;;;;;4885105;29;20036;-79
2023/02/21 14:07:48;;;;;;;6.05;4.32;;;10.70;99.90;;;;;;4898279;29;20018;-78
2023/02/21 14:10:32;;;;;;;13.25;4.82;;;10.70;99.90;;;;;;4883053;29;20040;-78
2023/02/21 14:13:01;;;;;;;6.47;4.18;;;10.80;99.90;;;;;;4882870;29;20049;-78
2023/02/21 14:15:43;;;;;;;8.02;5.05;;;10.70;99.90;;;;;;4882923;29;20089;-78
2023/02/21 14:18:38;;;;;;;6.00;4.47;;;10.80;99.90;;;;;;4873824;29;20029;-78
2023/02/21 14:21:20;;;;;;;4.65;3.85;;;10.80;99.90;;;;;;4883535;29;20057;-78
2023/02/21 14:23:55;;;;;;;5.10;3.70;;;10.70;99.90;;;;;;4901597;29;20454;-77
2023/02/21 14:26:51;;;;;;;4.40;3.60;;;10.70;99.90;;;;;;4902018;29;20021;-78
2023/02/21 14:29:38;;;;;;;5.00;3.95;;;10.70;99.90;;;;;;4901669;29;20457;-77
2023/02/21 14:32:07;;;;;;;6.05;4.10;;;10.60;99.90;;;;;;4884567;29;20033;-77
2023/02/21 14:34:57;;;;;;;5.45;4.22;;;10.60;99.90;;;;;;4901324;29;20890;-77
2023/02/21 14:37:39;;;;;;;6.22;3.97;;;10.60;99.90;;;;;;4895169;29;20025;-76
2023/02/21 14:40:09;;;;;;;4.72;3.55;;;10.50;99.90;;;;;;4882898;29;20136;-76
2023/02/21 14:43:12;;;;;;;5.10;3.92;;;10.50;99.90;;;;;;4868522;29;20033;-77
2023/02/21 14:46:15;;;;;;;4.95;3.70;;;10.60;99.90;;;;;;4887928;29;20036;-77
2023/02/21 14:48:59;;;;;;;5.30;3.75;;;10.60;99.90;;;;;;4885721;29;20025;-77
2023/02/21 14:51:40;;;;;;;6.18;4.00;;;10.70;99.90;;;;;;4885924;29;20052;-76
2023/02/21 14:54:24;;;;;;;5.38;4.03;;;10.80;99.90;;;;;;4886043;29;20440;-76
2023/02/21 14:57:11;;;;;;;6.22;4.40;;;10.90;99.90;;;;;;4876711;29;20024;-77
2023/02/21 15:00:14;;;;;;;6.32;4.53;;;11.00;99.90;;;;;;4904559;29;20104;-77
2023/02/21 15:02:49;;;;;;;6.07;4.18;;;11.00;99.90;;;;;;4887565;29;20036;-77
2023/02/21 15:05:46;;;;;;;8.27;4.70;;;11.10;99.90;;;;;;4904817;29;20025;-76
2023/02/21 15:08:19;;;;;;;5.95;4.78;;;11.10;99.90;;;;;;4897350;29;20078;-75
2023/02/21 15:10:47;;;;;;;9.85;4.80;;;11.20;99.90;;;;;;4887324;29;20049;-76
2023/02/21 15:13:29;;;;;;;6.57;4.35;;;11.20;99.90;;;;;;4885742;29;20529;-76
2023/02/21 15:16:02;;;;;;;5.82;4.30;;;11.20;99.90;;;;;;4869125;29;20112;-76
2023/02/21 15:18:31;;;;;;;6.63;4.68;;;11.10;99.90;;;;;;4900799;29;20064;-76
2023/02/21 15:21:09;;;;;;;6.28;4.95;;;11.20;99.90;;;;;;4904331;29;20520;-75
2023/02/21 15:23:35;;;;;;;6.20;4.32;;;11.10;99.90;;;;;;4904228;29;20044;-76
2023/02/21 15:26:15;;;;;;;6.13;5.00;;;11.10;99.90;;;;;;4904077;29;20032;-76
2023/02/21 15:28:41;;;;;;;5.95;4.43;;;11.10;99.90;;;;;;4903968;29;20035;-75
2023/02/21 15:31:09;;;;;;;5.22;4.28;;;11.10;99.90;;;;;;4904226;29;20029;-76
2023/02/21 15:33:37;;;;;;;5.32;4.22;;;11.10;99.90;;;;;;4903579;29;20036;-76
2023/02/21 15:36:23;;;;;;;8.60;5.20;;;11.10;99.90;;;;;;4903954;29;20389;-76
2023/02/21 15:39:09;;;;;;;9.73;5.45;;;11.10;99.90;;;;;;4885873;29;20029;-76
2023/02/21 15:41:48;;;;;;;6.40;4.45;;;11.10;99.90;;;;;;4885003;29;20032;-76